createdAt,value
2022-11-05T00:00:49.112Z,0
2022-11-05T00:01:49.243Z,0
2022-11-05T00:02:49.159Z,0
2022-11-05T00:03:49.294Z,0
2022-11-05T00:04:48.943Z,0
2022-11-05T00:05:48.734Z,0
2022-11-05T00:06:49.243Z,0
2022-11-05T00:07:49.276Z,0
2022-11-05T00:08:49.025Z,0
2022-11-05T00:09:49.336Z,0
2022-11-05T00:10:49.504Z,0
2022-11-05T00:11:49.358Z,0
2022-11-05T00:12:49.116Z,0
2022-11-05T00:13:49.147Z,0
2022-11-05T00:14:49.408Z,0
2022-11-05T00:15:49.184Z,0
2022-11-05T00:16:48.944Z,0
2022-11-05T00:17:48.980Z,0
2022-11-05T00:18:48.985Z,0
2022-11-05T00:19:48.997Z,0
2022-11-05T00:20:49.545Z,0
2022-11-05T00:21:49.563Z,0
2022-11-05T00:22:49.060Z,0
2022-11-05T00:23:49.091Z,0
2022-11-05T00:24:49.612Z,0
2022-11-05T00:25:49.391Z,0
2022-11-05T00:26:49.912Z,0
2022-11-05T00:27:49.428Z,0
2022-11-05T00:28:49.438Z,0
2022-11-05T00:29:49.733Z,0
2022-11-05T00:30:49.758Z,0
2022-11-05T00:31:49.506Z,0
2022-11-05T00:32:49.775Z,0
2022-11-05T00:33:49.554Z,0
2022-11-05T00:34:49.587Z,0
2022-11-05T00:35:49.590Z,0
2022-11-05T00:36:49.355Z,0
2022-11-05T00:37:57.192Z,0
2022-11-05T00:38:49.401Z,0
2022-11-05T00:39:49.937Z,0
2022-11-05T00:40:49.682Z,0
2022-11-05T00:41:49.716Z,0
2022-11-05T00:42:50.339Z,0
2022-11-05T00:43:50.020Z,0
2022-11-05T00:44:49.716Z,0
2022-11-05T00:45:49.792Z,0
2022-11-05T00:46:50.068Z,0
2022-11-05T00:47:49.834Z,0
2022-11-05T00:48:49.598Z,0
2022-11-05T00:49:49.876Z,0
2022-11-05T00:50:49.403Z,0
2022-11-05T00:51:49.922Z,0
2022-11-05T00:52:50.190Z,0
2022-11-05T00:53:49.699Z,0
2022-11-05T00:54:50.026Z,0
2022-11-05T00:55:50.045Z,0
2022-11-05T00:56:50.027Z,0
2022-11-05T00:57:50.036Z,0
2022-11-05T00:58:50.435Z,0
2022-11-05T00:59:50.092Z,0
2022-11-05T01:00:50.400Z,0
2022-11-05T01:01:50.626Z,0
2022-11-05T01:02:51.389Z,0
2022-11-05T01:03:56.888Z,0
2022-11-05T01:04:50.433Z,0
2022-11-05T01:05:50.510Z,0
2022-11-05T01:06:50.228Z,0
2022-11-05T01:07:50.520Z,0
2022-11-05T01:08:50.011Z,0
2022-11-05T01:09:50.534Z,0
2022-11-05T01:10:50.311Z,0
2022-11-05T01:11:50.077Z,0
2022-11-05T01:12:50.348Z,0
2022-11-05T01:13:49.851Z,0
2022-11-05T01:14:50.802Z,0
2022-11-05T01:15:50.692Z,0
2022-11-05T01:16:50.170Z,0
2022-11-05T01:17:50.192Z,0
2022-11-05T01:18:50.484Z,0
2022-11-05T01:19:50.498Z,0
2022-11-05T01:20:50.521Z,0
2022-11-05T01:21:50.783Z,0
2022-11-05T01:22:50.549Z,0
2022-11-05T01:23:50.843Z,0
2022-11-05T01:24:50.327Z,0
2022-11-05T01:25:50.861Z,0
2022-11-05T01:26:50.629Z,0
2022-11-05T01:27:50.909Z,0
2022-11-05T01:28:51.414Z,0
2022-11-05T01:29:50.179Z,0
2022-11-05T01:30:51.286Z,0
2022-11-05T01:31:51.000Z,0
2022-11-05T01:32:50.496Z,0
2022-11-05T01:33:50.784Z,0
2022-11-05T01:34:51.400Z,0
2022-11-05T01:35:50.306Z,0
2022-11-05T01:36:51.090Z,0
2022-11-05T01:37:50.848Z,0
2022-11-05T01:38:50.618Z,0
2022-11-05T01:39:50.887Z,0
2022-11-05T01:40:51.005Z,0
2022-11-05T01:41:50.957Z,0
2022-11-05T01:42:51.217Z,0
2022-11-05T01:43:50.975Z,0
2022-11-05T01:44:51.537Z,0
2022-11-05T01:45:51.010Z,0
2022-11-05T01:46:51.604Z,0
2022-11-05T01:47:51.049Z,0
2022-11-05T01:48:50.817Z,0
2022-11-05T01:49:50.842Z,0
2022-11-05T01:50:51.368Z,0
2022-11-05T01:51:50.872Z,0
2022-11-05T01:52:51.191Z,0
2022-11-05T01:53:51.161Z,0
2022-11-05T01:54:51.197Z,0
2022-11-05T01:55:51.467Z,0
2022-11-05T01:56:51.492Z,0
2022-11-05T01:57:50.993Z,0
2022-11-05T01:58:51.289Z,0
2022-11-05T01:59:51.293Z,0
2022-11-05T02:00:51.077Z,0
2022-11-05T02:01:51.546Z,0
2022-11-05T02:02:52.883Z,0
2022-11-05T02:03:51.635Z,0
2022-11-05T02:04:51.382Z,0
2022-11-05T02:05:51.676Z,0
2022-11-05T02:06:51.732Z,0
2022-11-05T02:07:51.467Z,0
2022-11-05T02:08:51.491Z,0
2022-11-05T02:09:50.989Z,0
2022-11-05T02:10:51.517Z,0
2022-11-05T02:11:51.287Z,0
2022-11-05T02:12:51.297Z,0
2022-11-05T02:13:51.835Z,0
2022-11-05T02:14:51.596Z,0
2022-11-05T02:15:51.614Z,0
2022-11-05T02:16:51.664Z,0
2022-11-05T02:17:51.945Z,0
2022-11-05T02:18:52.075Z,0
2022-11-05T02:19:51.954Z,0
2022-11-05T02:20:58.160Z,0
2022-11-05T02:21:51.461Z,0
2022-11-05T02:22:51.752Z,0
2022-11-05T02:23:51.513Z,0
2022-11-05T02:24:51.806Z,0
2022-11-05T02:25:51.292Z,0
2022-11-05T02:26:51.585Z,0
2022-11-05T02:27:51.639Z,0
2022-11-05T02:28:51.618Z,0
2022-11-05T02:29:51.647Z,0
2022-11-05T02:30:51.962Z,0
2022-11-05T02:31:51.724Z,0
2022-11-05T02:32:52.208Z,0
2022-11-05T02:33:52.256Z,0
2022-11-05T02:34:52.385Z,0
2022-11-05T02:35:51.794Z,0
2022-11-05T02:36:52.317Z,0
2022-11-05T02:37:51.805Z,0
2022-11-05T02:38:52.104Z,0
2022-11-05T02:39:52.148Z,0
2022-11-05T02:40:51.862Z,0
2022-11-05T02:41:52.207Z,0
2022-11-05T02:42:52.410Z,0
2022-11-05T02:43:52.438Z,0
2022-11-05T02:44:52.255Z,0
2022-11-05T02:45:52.236Z,0
2022-11-05T02:46:52.491Z,0
2022-11-05T02:47:52.023Z,0
2022-11-05T02:48:51.510Z,0
2022-11-05T02:49:52.548Z,0
2022-11-05T02:50:52.888Z,0
2022-11-05T02:51:52.350Z,0
2022-11-05T02:52:52.345Z,0
2022-11-05T02:53:52.642Z,0
2022-11-05T02:54:52.661Z,0
2022-11-05T02:55:52.209Z,0
2022-11-05T02:56:52.454Z,0
2022-11-05T02:57:52.467Z,0
2022-11-05T02:58:52.732Z,0
2022-11-05T02:59:52.752Z,0
2022-11-05T03:00:52.506Z,0
2022-11-05T03:01:53.389Z,0
2022-11-05T03:02:53.276Z,0
2022-11-05T03:03:52.128Z,0
2022-11-05T03:04:52.347Z,0
2022-11-05T03:05:52.630Z,0
2022-11-05T03:06:53.227Z,0
2022-11-05T03:07:52.408Z,0
2022-11-05T03:08:52.415Z,0
2022-11-05T03:09:52.450Z,0
2022-11-05T03:10:52.930Z,0
2022-11-05T03:11:52.465Z,0
2022-11-05T03:12:52.494Z,0
2022-11-05T03:13:52.502Z,0
2022-11-05T03:14:52.780Z,0
2022-11-05T03:15:53.071Z,0
2022-11-05T03:16:52.560Z,0
2022-11-05T03:17:52.590Z,0
2022-11-05T03:18:52.747Z,0
2022-11-05T03:19:53.093Z,0
2022-11-05T03:20:53.186Z,0
2022-11-05T03:21:52.924Z,0
2022-11-05T03:22:53.340Z,0
2022-11-05T03:23:53.218Z,0
2022-11-05T03:24:53.000Z,0
2022-11-05T03:25:53.254Z,0
2022-11-05T03:26:53.282Z,0
2022-11-05T03:27:52.785Z,0
2022-11-05T03:28:53.066Z,0
2022-11-05T03:29:53.360Z,0
2022-11-05T03:30:53.102Z,0
2022-11-05T03:31:53.389Z,0
2022-11-05T03:32:52.890Z,0
2022-11-05T03:33:53.176Z,0
2022-11-05T03:34:52.680Z,0
2022-11-05T03:35:53.200Z,0
2022-11-05T03:36:52.959Z,0
2022-11-05T03:37:53.513Z,0
2022-11-05T03:38:53.631Z,0
2022-11-05T03:39:53.285Z,0
2022-11-05T03:40:53.309Z,0
2022-11-05T03:41:53.315Z,0
2022-11-05T03:42:53.335Z,0
2022-11-05T03:43:53.096Z,0
2022-11-05T03:44:53.428Z,0
2022-11-05T03:45:53.142Z,0
2022-11-05T03:46:53.408Z,0
2022-11-05T03:47:53.697Z,0
2022-11-05T03:48:53.786Z,0
2022-11-05T03:49:53.469Z,0
2022-11-05T03:50:53.745Z,0
2022-11-05T03:51:53.262Z,0
2022-11-05T03:52:53.779Z,0
2022-11-05T03:53:53.802Z,0
2022-11-05T03:54:54.228Z,0
2022-11-05T03:55:53.336Z,0
2022-11-05T03:56:53.607Z,0
2022-11-05T03:57:53.881Z,0
2022-11-05T03:59:00.868Z,0
2022-11-05T03:59:53.920Z,0
2022-11-05T04:00:53.445Z,0
2022-11-05T04:01:54.657Z,0
2022-11-05T04:02:55.016Z,0
2022-11-05T04:03:53.484Z,0
2022-11-05T04:04:54.022Z,0
2022-11-05T04:05:53.784Z,0
2022-11-05T04:06:54.053Z,0
2022-11-05T04:07:53.832Z,0
2022-11-05T04:08:54.102Z,0
2022-11-05T04:09:54.117Z,0
2022-11-05T04:10:54.249Z,0
2022-11-05T04:11:53.913Z,0
2022-11-05T04:12:53.927Z,0
2022-11-05T04:13:53.939Z,0
2022-11-05T04:14:53.443Z,0
2022-11-05T04:15:54.224Z,0
2022-11-05T04:16:54.260Z,0
2022-11-05T04:17:53.505Z,0
2022-11-05T04:18:53.774Z,0
2022-11-05T04:19:54.050Z,0
2022-11-05T04:20:54.079Z,0
2022-11-05T04:21:54.354Z,0
2022-11-05T04:22:54.125Z,0
2022-11-05T04:23:53.881Z,0
2022-11-05T04:24:54.144Z,0
2022-11-05T04:25:53.925Z,0
2022-11-05T04:26:54.714Z,0
2022-11-05T04:27:54.230Z,0
2022-11-05T04:28:54.488Z,0
2022-11-05T04:29:54.267Z,0
2022-11-05T04:30:54.000Z,0
2022-11-05T04:31:54.283Z,0
2022-11-05T04:32:54.541Z,0
2022-11-05T04:33:54.325Z,0
2022-11-05T04:34:54.360Z,0
2022-11-05T04:35:53.847Z,0
2022-11-05T04:36:54.674Z,0
2022-11-05T04:37:54.416Z,0
2022-11-05T04:38:54.178Z,0
2022-11-05T04:39:54.446Z,0
2022-11-05T04:40:54.706Z,0
2022-11-05T04:41:54.737Z,0
2022-11-05T04:42:54.981Z,0
2022-11-05T04:43:54.510Z,0
2022-11-05T04:44:54.990Z,0
2022-11-05T04:45:54.560Z,0
2022-11-05T04:46:54.828Z,0
2022-11-05T04:47:54.329Z,0
2022-11-05T04:48:54.884Z,0
2022-11-05T04:49:54.893Z,0
2022-11-05T04:50:54.898Z,0
2022-11-05T04:51:54.674Z,0
2022-11-05T04:52:54.710Z,0
2022-11-05T04:53:54.709Z,0
2022-11-05T04:54:54.719Z,0
2022-11-05T04:55:54.493Z,0
2022-11-05T04:56:54.498Z,0
2022-11-05T04:57:55.039Z,0
2022-11-05T04:58:55.174Z,0
2022-11-05T04:59:55.118Z,0
2022-11-05T05:00:55.076Z,0
2022-11-05T05:01:55.512Z,0
2022-11-05T05:02:54.885Z,0
2022-11-05T05:03:55.150Z,0
2022-11-05T05:04:54.924Z,0
2022-11-05T05:06:04.804Z,0
2022-11-05T05:06:55.081Z,0
2022-11-05T05:07:54.725Z,0
2022-11-05T05:08:54.993Z,0
2022-11-05T05:09:55.264Z,0
2022-11-05T05:10:55.040Z,0
2022-11-05T05:11:54.782Z,0
2022-11-05T05:12:55.076Z,0
2022-11-05T05:13:55.112Z,0
2022-11-05T05:14:55.499Z,0
2022-11-05T05:15:55.127Z,0
2022-11-05T05:16:55.142Z,0
2022-11-05T05:17:55.425Z,0
2022-11-05T05:18:56.012Z,0
2022-11-05T05:19:55.202Z,0
2022-11-05T05:20:54.977Z,0
2022-11-05T05:21:55.072Z,0
2022-11-05T05:22:55.266Z,0
2022-11-05T05:23:55.538Z,0
2022-11-05T05:25:01.766Z,0
2022-11-05T05:25:55.624Z,0
2022-11-05T05:26:55.095Z,0
2022-11-05T05:27:55.371Z,0
2022-11-05T05:28:55.387Z,0
2022-11-05T05:29:55.136Z,0
2022-11-05T05:31:02.486Z,0
2022-11-05T05:31:55.442Z,0
2022-11-05T05:32:55.705Z,0
2022-11-05T05:33:55.236Z,0
2022-11-05T05:34:55.213Z,0
2022-11-05T05:35:55.503Z,0
2022-11-05T05:36:55.006Z,0
2022-11-05T05:37:55.033Z,0
2022-11-05T05:38:55.303Z,0
2022-11-05T05:39:55.584Z,0
2022-11-05T05:40:55.083Z,0
2022-11-05T05:41:55.618Z,0
2022-11-05T05:42:55.637Z,0
2022-11-05T05:43:55.651Z,0
2022-11-05T05:44:55.885Z,0
2022-11-05T05:45:55.434Z,0
2022-11-05T05:46:56.109Z,0
2022-11-05T05:47:55.722Z,0
2022-11-05T05:48:55.746Z,0
2022-11-05T05:49:55.532Z,0
2022-11-05T05:50:55.276Z,0
2022-11-05T05:51:55.810Z,0
2022-11-05T05:52:55.830Z,0
2022-11-05T05:53:55.836Z,0
2022-11-05T05:54:55.859Z,0
2022-11-05T05:55:55.365Z,0
2022-11-05T05:56:55.913Z,0
2022-11-05T05:57:55.913Z,0
2022-11-05T05:58:55.938Z,0
2022-11-05T05:59:55.705Z,0
2022-11-05T06:00:55.999Z,0
2022-11-05T06:01:56.824Z,0
2022-11-05T06:02:57.212Z,0
2022-11-05T06:03:56.045Z,0
2022-11-05T06:04:55.785Z,0
2022-11-05T06:05:55.807Z,0
2022-11-05T06:06:55.833Z,0
2022-11-05T06:07:55.855Z,0
2022-11-05T06:08:56.189Z,0
2022-11-05T06:09:56.406Z,0
2022-11-05T06:10:56.622Z,0
2022-11-05T06:11:55.670Z,0
2022-11-05T06:12:56.453Z,0
2022-11-05T06:13:55.959Z,0
2022-11-05T06:14:56.249Z,0
2022-11-05T06:15:55.996Z,0
2022-11-05T06:16:56.010Z,0
2022-11-05T06:17:56.299Z,0
2022-11-05T06:18:56.860Z,0
2022-11-05T06:19:56.319Z,0
2022-11-05T06:20:56.349Z,0
2022-11-05T06:21:56.613Z,0
2022-11-05T06:22:56.144Z,0
2022-11-05T06:23:56.404Z,0
2022-11-05T06:24:56.410Z,0
2022-11-05T06:25:56.804Z,0
2022-11-05T06:26:56.457Z,0
2022-11-05T06:27:56.482Z,0
2022-11-05T06:28:56.801Z,0
2022-11-05T06:29:56.517Z,0
2022-11-05T06:30:56.801Z,0
2022-11-05T06:31:56.559Z,0
2022-11-05T06:32:56.323Z,0
2022-11-05T06:33:56.615Z,0
2022-11-05T06:34:57.026Z,0
2022-11-05T06:35:56.631Z,0
2022-11-05T06:36:56.198Z,0
2022-11-05T06:37:56.686Z,5
2022-11-05T06:38:55.928Z,5
2022-11-05T06:39:56.708Z,5
2022-11-05T06:40:56.741Z,5
2022-11-05T06:42:26.378Z,5
2022-11-05T06:42:56.758Z,5
2022-11-05T06:43:56.798Z,5
2022-11-05T06:44:56.947Z,5
2022-11-05T06:45:56.806Z,5
2022-11-05T06:46:58.422Z,5
2022-11-05T06:47:57.116Z,5
2022-11-05T06:48:56.666Z,5
2022-11-05T06:49:57.196Z,10
2022-11-05T06:50:57.307Z,10
2022-11-05T06:51:56.412Z,10
2022-11-05T06:52:56.436Z,10
2022-11-05T06:53:56.958Z,5
2022-11-05T06:54:56.760Z,5
2022-11-05T06:55:56.758Z,10
2022-11-05T06:56:56.511Z,10
2022-11-05T06:57:57.307Z,10
2022-11-05T06:58:57.335Z,10
2022-11-05T07:00:09.455Z,10
2022-11-05T07:00:56.986Z,10
2022-11-05T07:01:57.917Z,10
2022-11-05T07:02:56.885Z,10
2022-11-05T07:03:57.136Z,15
2022-11-05T07:04:57.429Z,15
2022-11-05T07:05:57.196Z,15
2022-11-05T07:06:57.584Z,15
2022-11-05T07:07:57.000Z,15
2022-11-05T07:08:57.004Z,10
2022-11-05T07:09:57.518Z,15
2022-11-05T07:10:57.540Z,10
2022-11-05T07:11:57.710Z,10
2022-11-05T07:12:57.324Z,10
2022-11-05T07:13:57.595Z,10
2022-11-05T07:14:57.351Z,10
2022-11-05T07:15:57.626Z,10
2022-11-05T07:16:57.643Z,10
2022-11-05T07:17:57.415Z,15
2022-11-05T07:18:56.920Z,15
2022-11-05T07:19:57.445Z,20
2022-11-05T07:20:57.480Z,15
2022-11-05T07:21:57.466Z,10
2022-11-05T07:22:57.903Z,10
2022-11-05T07:23:57.111Z,10
2022-11-05T07:24:57.820Z,10
2022-11-05T07:25:57.821Z,10
2022-11-05T07:26:57.587Z,15
2022-11-05T07:27:57.428Z,15
2022-11-05T07:28:57.612Z,15
2022-11-05T07:29:57.376Z,10
2022-11-05T07:30:57.901Z,10
2022-11-05T07:31:57.919Z,10
2022-11-05T07:32:57.687Z,15
2022-11-05T07:33:57.962Z,15
2022-11-05T07:34:57.713Z,15
2022-11-05T07:35:57.491Z,15
2022-11-05T07:36:57.769Z,20
2022-11-05T07:37:58.039Z,25
2022-11-05T07:39:05.222Z,25
2022-11-05T07:39:57.820Z,20
2022-11-05T07:40:58.100Z,15
2022-11-05T07:41:57.852Z,10
2022-11-05T07:42:58.140Z,10
2022-11-05T07:43:57.891Z,15
2022-11-05T07:44:57.844Z,15
2022-11-05T07:45:57.934Z,20
2022-11-05T07:46:57.951Z,25
2022-11-05T07:47:57.707Z,30
2022-11-05T07:48:58.225Z,35
2022-11-05T07:49:58.033Z,35
2022-11-05T07:50:58.266Z,30
2022-11-05T07:51:57.777Z,25
2022-11-05T07:52:58.314Z,20
2022-11-05T07:53:58.088Z,20
2022-11-05T07:54:58.653Z,20
2022-11-05T07:55:58.104Z,20
2022-11-05T07:56:58.133Z,15
2022-11-05T07:57:58.166Z,20
2022-11-05T07:58:57.658Z,25
2022-11-05T07:59:58.437Z,25
2022-11-05T08:00:59.046Z,25
2022-11-05T08:01:59.517Z,30
2022-11-05T08:03:07.553Z,25
2022-11-05T08:03:58.306Z,25
2022-11-05T08:04:58.284Z,25
2022-11-05T08:05:58.309Z,25
2022-11-05T08:06:58.624Z,30
2022-11-05T08:07:58.342Z,30
2022-11-05T08:08:58.776Z,20
2022-11-05T08:09:58.108Z,20
2022-11-05T08:10:58.916Z,25
2022-11-05T08:12:08.242Z,25
2022-11-05T08:12:58.701Z,30
2022-11-05T08:13:58.714Z,30
2022-11-05T08:14:58.198Z,25
2022-11-05T08:15:58.486Z,25
2022-11-05T08:16:58.518Z,25
2022-11-05T08:17:58.529Z,25
2022-11-05T08:18:58.799Z,25
2022-11-05T08:19:58.291Z,25
2022-11-05T08:20:58.586Z,25
2022-11-05T08:21:58.464Z,30
2022-11-05T08:22:58.621Z,30
2022-11-05T08:23:58.367Z,30
2022-11-05T08:25:02.701Z,30
2022-11-05T08:25:58.429Z,30
2022-11-05T08:26:59.197Z,30
2022-11-05T08:27:58.191Z,30
2022-11-05T08:28:58.471Z,30
2022-11-05T08:29:58.748Z,30
2022-11-05T08:30:58.671Z,40
2022-11-05T08:31:58.791Z,45
2022-11-05T08:32:59.062Z,45
2022-11-05T08:34:05.299Z,45
2022-11-05T08:34:58.837Z,45
2022-11-05T08:35:59.148Z,45
2022-11-05T08:36:59.154Z,45
2022-11-05T08:37:58.898Z,45
2022-11-05T08:38:59.185Z,45
2022-11-05T08:39:58.684Z,45
2022-11-05T08:40:58.949Z,45
2022-11-05T08:41:58.718Z,45
2022-11-05T08:42:59.485Z,45
2022-11-05T08:43:59.269Z,45
2022-11-05T08:44:59.086Z,45
2022-11-05T08:45:59.236Z,45
2022-11-05T08:46:59.064Z,45
2022-11-05T08:47:59.344Z,45
2022-11-05T08:48:59.115Z,45
2022-11-05T08:49:59.119Z,45
2022-11-05T08:50:58.886Z,45
2022-11-05T08:51:59.155Z,45
2022-11-05T08:52:59.167Z,45
2022-11-05T08:53:59.478Z,45
2022-11-05T08:54:59.218Z,45
2022-11-05T08:55:59.233Z,45
2022-11-05T08:56:59.000Z,45
2022-11-05T08:57:59.005Z,45
2022-11-05T08:58:59.909Z,45
2022-11-05T08:59:59.316Z,45
2022-11-05T09:01:07.640Z,45
2022-11-05T09:02:00.287Z,45
2022-11-05T09:02:58.851Z,45
2022-11-05T09:03:59.142Z,45
2022-11-05T09:04:59.423Z,45
2022-11-05T09:05:58.902Z,45
2022-11-05T09:06:59.429Z,45
2022-11-05T09:08:06.466Z,45
2022-11-05T09:08:59.742Z,45
2022-11-05T09:09:59.763Z,45
2022-11-05T09:10:59.783Z,45
2022-11-05T09:12:20.946Z,45
2022-11-05T09:12:59.896Z,45
2022-11-05T09:13:59.819Z,30
2022-11-05T09:14:59.965Z,45
2022-11-05T09:15:59.353Z,45
2022-11-05T09:16:59.360Z,45
2022-11-05T09:17:59.401Z,45
2022-11-05T09:18:59.654Z,45
2022-11-05T09:19:59.939Z,45
2022-11-05T09:20:59.980Z,45
2022-11-05T09:22:00.037Z,45
2022-11-05T09:22:59.498Z,45
2022-11-05T09:23:59.506Z,45
2022-11-05T09:24:59.773Z,45
2022-11-05T09:25:59.806Z,45
2022-11-05T09:26:59.559Z,45
2022-11-05T09:28:00.091Z,55
2022-11-05T09:28:59.853Z,50
2022-11-05T09:29:59.608Z,45
2022-11-05T09:31:00.743Z,40
2022-11-05T09:31:59.647Z,55
2022-11-05T09:32:59.946Z,50
2022-11-05T09:33:59.681Z,50
2022-11-05T09:35:00.234Z,45
2022-11-05T09:35:59.488Z,50
2022-11-05T09:37:00.010Z,45
2022-11-05T09:38:06.088Z,45
2022-11-05T09:39:00.037Z,45
2022-11-05T09:40:00.362Z,45
2022-11-05T09:41:00.090Z,50
2022-11-05T09:42:00.151Z,55
2022-11-05T09:43:00.366Z,45
2022-11-05T09:44:00.128Z,50
2022-11-05T09:45:00.204Z,50
2022-11-05T09:46:00.419Z,55
2022-11-05T09:47:00.590Z,45
2022-11-05T09:48:00.190Z,35
2022-11-05T09:49:00.528Z,40
2022-11-05T09:50:00.253Z,35
2022-11-05T09:51:00.256Z,35
2022-11-05T09:52:00.542Z,45
2022-11-05T09:53:00.308Z,55
2022-11-05T09:54:00.307Z,50
2022-11-05T09:55:00.601Z,50
2022-11-05T09:56:00.114Z,50
2022-11-05T09:57:00.374Z,45
2022-11-05T09:58:00.128Z,50
2022-11-05T09:59:00.663Z,45
2022-11-05T10:00:00.425Z,45
2022-11-05T10:01:00.544Z,55
2022-11-05T10:02:01.602Z,60
2022-11-05T10:03:00.972Z,50
2022-11-05T10:03:59.979Z,45
2022-11-05T10:05:03.630Z,50
2022-11-05T10:06:01.276Z,60
2022-11-05T10:07:00.044Z,60
2022-11-05T10:08:00.583Z,50
2022-11-05T10:09:00.328Z,40
2022-11-05T10:10:00.358Z,55
2022-11-05T10:11:00.899Z,65
2022-11-05T10:12:00.652Z,80
2022-11-05T10:13:00.928Z,70
2022-11-05T10:14:00.939Z,60
2022-11-05T10:15:00.706Z,65
2022-11-05T10:16:00.463Z,55
2022-11-05T10:17:00.737Z,50
2022-11-05T10:18:01.028Z,55
2022-11-05T10:19:01.317Z,65
2022-11-05T10:20:00.807Z,75
2022-11-05T10:21:01.080Z,60
2022-11-05T10:22:15.633Z,70
2022-11-05T10:23:01.123Z,80
2022-11-05T10:24:01.132Z,70
2022-11-05T10:25:01.161Z,75
2022-11-05T10:26:01.195Z,60
2022-11-05T10:27:00.940Z,60
2022-11-05T10:28:00.953Z,75
2022-11-05T10:29:00.726Z,70
2022-11-05T10:30:00.737Z,45
2022-11-05T10:31:00.764Z,50
2022-11-05T10:32:01.292Z,35
2022-11-05T10:33:00.784Z,35
2022-11-05T10:34:01.120Z,35
2022-11-05T10:35:01.540Z,35
2022-11-05T10:36:01.117Z,40
2022-11-05T10:37:01.135Z,35
2022-11-05T10:38:00.896Z,40
2022-11-05T10:39:01.174Z,35
2022-11-05T10:40:01.380Z,45
2022-11-05T10:41:01.210Z,40
2022-11-05T10:42:00.718Z,40
2022-11-05T10:43:00.992Z,45
2022-11-05T10:44:01.271Z,50
2022-11-05T10:45:00.866Z,45
2022-11-05T10:46:01.296Z,55
2022-11-05T10:47:01.061Z,65
2022-11-05T10:48:00.835Z,65
2022-11-05T10:49:01.611Z,65
2022-11-05T10:50:01.091Z,75
2022-11-05T10:51:02.018Z,65
2022-11-05T10:52:01.426Z,60
2022-11-05T10:53:01.443Z,85
2022-11-05T10:54:09.209Z,95
2022-11-05T10:55:01.210Z,90
2022-11-05T10:56:01.748Z,90
2022-11-05T10:57:01.768Z,85
2022-11-05T10:58:01.782Z,90
2022-11-05T10:59:01.814Z,85
2022-11-05T11:00:01.311Z,80
2022-11-05T11:01:02.249Z,75
2022-11-05T11:02:02.490Z,65
2022-11-05T11:03:01.930Z,60
2022-11-05T11:04:01.638Z,60
2022-11-05T11:05:01.924Z,70
2022-11-05T11:06:01.687Z,95
2022-11-05T11:07:02.108Z,95
2022-11-05T11:08:01.721Z,90
2022-11-05T11:09:01.478Z,85
2022-11-05T11:10:02.037Z,90
2022-11-05T11:11:01.297Z,90
2022-11-05T11:12:01.794Z,95
2022-11-05T11:13:01.837Z,95
2022-11-05T11:14:02.114Z,95
2022-11-05T11:15:01.858Z,100
2022-11-05T11:16:02.137Z,90
2022-11-05T11:17:01.802Z,80
2022-11-05T11:18:01.926Z,80
2022-11-05T11:19:01.699Z,75
2022-11-05T11:20:01.944Z,75
2022-11-05T11:21:01.709Z,65
2022-11-05T11:22:02.239Z,55
2022-11-05T11:23:02.577Z,60
2022-11-05T11:24:02.316Z,50
2022-11-05T11:25:01.788Z,50
2022-11-05T11:26:02.052Z,50
2022-11-05T11:27:01.818Z,45
2022-11-05T11:28:01.866Z,50
2022-11-05T11:29:02.388Z,50
2022-11-05T11:30:02.138Z,45
2022-11-05T11:31:01.905Z,45
2022-11-05T11:32:02.453Z,50
2022-11-05T11:33:01.933Z,55
2022-11-05T11:34:02.222Z,55
2022-11-05T11:35:02.247Z,60
2022-11-05T11:36:01.997Z,75
2022-11-05T11:37:01.772Z,70
2022-11-05T11:38:02.554Z,60
2022-11-05T11:39:02.731Z,55
2022-11-05T11:40:02.089Z,50
2022-11-05T11:41:02.654Z,65
2022-11-05T11:42:02.538Z,70
2022-11-05T11:43:02.655Z,90
2022-11-05T11:44:01.889Z,115
2022-11-05T11:45:02.650Z,100
2022-11-05T11:46:17.506Z,100
2022-11-05T11:47:02.459Z,115
2022-11-05T11:48:02.513Z,110
2022-11-05T11:49:02.007Z,100
2022-11-05T11:50:02.542Z,100
2022-11-05T11:51:02.958Z,105
2022-11-05T11:52:02.861Z,105
2022-11-05T11:53:02.326Z,90
2022-11-05T11:54:02.364Z,80
2022-11-05T11:55:03.002Z,75
2022-11-05T11:56:02.960Z,80
2022-11-05T11:57:02.925Z,80
2022-11-05T11:58:02.943Z,85
2022-11-05T11:59:02.451Z,90
2022-11-05T12:00:18.475Z,75
2022-11-05T12:01:02.998Z,70
2022-11-05T12:02:03.430Z,80
2022-11-05T12:03:09.632Z,90
2022-11-05T12:04:03.074Z,90
2022-11-05T12:05:02.929Z,85
2022-11-05T12:06:03.097Z,75
2022-11-05T12:07:02.969Z,60
2022-11-05T12:08:03.003Z,50
2022-11-05T12:09:14.055Z,60
2022-11-05T12:10:02.973Z,65
2022-11-05T12:11:03.319Z,70
2022-11-05T12:12:02.962Z,60
2022-11-05T12:13:02.467Z,55
2022-11-05T12:14:03.011Z,70
2022-11-05T12:15:03.444Z,85
2022-11-05T12:16:03.036Z,90
2022-11-05T12:17:03.047Z,85
2022-11-05T12:18:02.932Z,65
2022-11-05T12:19:03.351Z,50
2022-11-05T12:20:02.381Z,50
2022-11-05T12:21:07.450Z,50
2022-11-05T12:22:02.896Z,50
2022-11-05T12:23:03.436Z,50
2022-11-05T12:24:03.184Z,45
2022-11-05T12:25:03.468Z,40
2022-11-05T12:26:02.987Z,45
2022-11-05T12:27:03.665Z,50
2022-11-05T12:28:03.279Z,50
2022-11-05T12:29:30.140Z,50
2022-11-05T12:30:03.342Z,40
2022-11-05T12:31:03.333Z,45
2022-11-05T12:32:03.087Z,55
2022-11-05T12:33:04.001Z,60
2022-11-05T12:34:03.388Z,45
2022-11-05T12:35:03.651Z,55
2022-11-05T12:36:07.351Z,55
2022-11-05T12:37:03.604Z,45
2022-11-05T12:38:03.467Z,45
2022-11-05T12:39:03.233Z,50
2022-11-05T12:40:03.441Z,40
2022-11-05T12:41:03.523Z,40
2022-11-05T12:42:03.777Z,40
2022-11-05T12:43:07.717Z,40
2022-11-05T12:44:03.098Z,40
2022-11-05T12:45:03.808Z,40
2022-11-05T12:46:03.901Z,40
2022-11-05T12:47:03.630Z,50
2022-11-05T12:48:03.912Z,40
2022-11-05T12:49:03.425Z,40
2022-11-05T12:50:03.688Z,40
2022-11-05T12:51:03.992Z,45
2022-11-05T12:52:03.477Z,45
2022-11-05T12:53:04.014Z,55
2022-11-05T12:54:03.821Z,50
2022-11-05T12:55:03.821Z,45
2022-11-05T12:56:03.567Z,40
2022-11-05T12:57:03.848Z,40
2022-11-05T12:58:03.874Z,40
2022-11-05T12:59:04.271Z,50
2022-11-05T13:00:03.638Z,70
2022-11-05T13:01:04.049Z,80
2022-11-05T13:02:04.835Z,80
2022-11-05T13:03:03.700Z,75
2022-11-05T13:04:04.012Z,70
2022-11-05T13:05:03.992Z,60
2022-11-05T13:06:10.998Z,65
2022-11-05T13:07:04.315Z,70
2022-11-05T13:08:04.319Z,65
2022-11-05T13:09:04.091Z,45
2022-11-05T13:10:03.839Z,40
2022-11-05T13:11:04.129Z,35
2022-11-05T13:12:04.146Z,35
2022-11-05T13:13:03.900Z,35
2022-11-05T13:14:04.168Z,35
2022-11-05T13:15:04.741Z,30
2022-11-05T13:16:04.243Z,30
2022-11-05T13:17:04.497Z,30
2022-11-05T13:18:04.009Z,30
2022-11-05T13:19:04.272Z,30
2022-11-05T13:20:04.304Z,30
2022-11-05T13:21:04.597Z,30
2022-11-05T13:22:04.058Z,30
2022-11-05T13:23:04.103Z,30
2022-11-05T13:24:04.129Z,35
2022-11-05T13:25:04.412Z,40
2022-11-05T13:26:04.673Z,40
2022-11-05T13:27:04.432Z,40
2022-11-05T13:28:04.451Z,45
2022-11-05T13:29:04.753Z,45
2022-11-05T13:30:04.806Z,45
2022-11-05T13:31:04.902Z,50
2022-11-05T13:32:04.282Z,50
2022-11-05T13:33:04.301Z,50
2022-11-05T13:34:04.053Z,50
2022-11-05T13:35:04.858Z,50
2022-11-05T13:36:04.338Z,50
2022-11-05T13:37:04.646Z,50
2022-11-05T13:38:04.136Z,50
2022-11-05T13:39:04.775Z,55
2022-11-05T13:40:04.241Z,55
2022-11-05T13:41:04.717Z,55
2022-11-05T13:42:04.761Z,60
2022-11-05T13:43:04.760Z,60
2022-11-05T13:44:04.776Z,60
2022-11-05T13:45:05.100Z,60
2022-11-05T13:46:11.750Z,60
2022-11-05T13:47:05.107Z,60
2022-11-05T13:48:05.097Z,55
2022-11-05T13:49:05.128Z,55
2022-11-05T13:50:04.947Z,55
2022-11-05T13:51:04.917Z,60
2022-11-05T13:52:04.402Z,60
2022-11-05T13:53:05.038Z,60
2022-11-05T13:54:05.213Z,55
2022-11-05T13:55:05.101Z,55
2022-11-05T13:56:04.483Z,55
2022-11-05T13:57:05.087Z,55
2022-11-05T13:58:05.057Z,55
2022-11-05T13:59:05.052Z,55
2022-11-05T14:00:04.856Z,55
2022-11-05T14:01:05.513Z,50
2022-11-05T14:02:06.362Z,50
2022-11-05T14:03:05.181Z,50
2022-11-05T14:04:04.912Z,50
2022-11-05T14:05:10.337Z,50
2022-11-05T14:06:05.313Z,50
2022-11-05T14:07:05.472Z,50
2022-11-05T14:08:05.085Z,50
2022-11-05T14:09:05.247Z,50
2022-11-05T14:10:05.669Z,50
2022-11-05T14:11:04.932Z,50
2022-11-05T14:12:05.335Z,50
2022-11-05T14:13:05.089Z,45
2022-11-05T14:14:05.358Z,45
2022-11-05T14:15:08.420Z,45
2022-11-05T14:16:05.648Z,45
2022-11-05T14:17:05.297Z,45
2022-11-05T14:18:05.524Z,45
2022-11-05T14:19:05.491Z,45
2022-11-05T14:20:05.636Z,45
2022-11-05T14:21:05.786Z,40
2022-11-05T14:22:06.580Z,40
2022-11-05T14:23:12.349Z,35
2022-11-05T14:24:05.291Z,35
2022-11-05T14:25:05.584Z,35
2022-11-05T14:26:05.356Z,30
2022-11-05T14:27:05.603Z,30
2022-11-05T14:28:05.504Z,30
2022-11-05T14:29:05.172Z,30
2022-11-05T14:30:05.407Z,25